sensor_id;sensor_type;location;lat;lon;timestamp;pressure;altitude;pressure_sealevel;temperature;humidity
20825;BME280;10573;50.936;6.978;2023-07-08T00:00:18;101225.69;;;24.24;37.18
20825;BME280;10573;50.936;6.978;2023-07-08T00:02:44;101227.84;;;24.22;37.94
20825;BME280;10573;50.936;6.978;2023-07-08T00:05:11;101226.81;;;24.17;37.85
20825;BME280;10573;50.936;6.978;2023-07-08T00:07:38;101220.25;;;24.04;38.45
20825;BME280;10573;50.936;6.978;2023-07-08T00:12:43;101220.94;;;23.93;38.65
20825;BME280;10573;50.936;6.978;2023-07-08T00:15:09;101212.41;;;23.88;39.07
20825;BME280;10573;50.936;6.978;2023-07-08T00:17:35;101213.47;;;23.87;39.09
20825;BME280;10573;50.936;6.978;2023-07-08T00:20:00;101211.66;;;23.67;39.57
20825;BME280;10573;50.936;6.978;2023-07-08T00:22:26;101212.78;;;23.53;39.80
20825;BME280;10573;50.936;6.978;2023-07-08T00:24:51;101208.06;;;23.60;40.20
20825;BME280;10573;50.936;6.978;2023-07-08T00:27:17;101200.84;;;23.45;40.40
20825;BME280;10573;50.936;6.978;2023-07-08T00:29:42;101204.69;;;23.44;40.51
20825;BME280;10573;50.936;6.978;2023-07-08T00:32:14;101204.72;;;23.31;40.94
20825;BME280;10573;50.936;6.978;2023-07-08T00:34:40;101200.00;;;23.38;41.22
20825;BME280;10573;50.936;6.978;2023-07-08T00:37:10;101203.41;;;23.40;41.23
20825;BME280;10573;50.936;6.978;2023-07-08T00:39:35;101203.41;;;23.40;41.05
20825;BME280;10573;50.936;6.978;2023-07-08T00:42:01;101197.88;;;23.34;41.37
20825;BME280;10573;50.936;6.978;2023-07-08T00:44:31;101195.97;;;23.34;41.23
20825;BME280;10573;50.936;6.978;2023-07-08T00:47:04;101200.03;;;23.32;41.20
20825;BME280;10573;50.936;6.978;2023-07-08T00:49:52;101204.56;;;23.26;41.65
20825;BME280;10573;50.936;6.978;2023-07-08T00:52:24;101200.06;;;23.25;41.71
20825;BME280;10573;50.936;6.978;2023-07-08T00:54:52;101200.94;;;23.19;41.94
20825;BME280;10573;50.936;6.978;2023-07-08T00:57:17;101198.56;;;23.22;41.62
20825;BME280;10573;50.936;6.978;2023-07-08T00:59:47;101199.16;;;23.31;41.65
20825;BME280;10573;50.936;6.978;2023-07-08T01:02:17;101193.59;;;23.31;42.01
20825;BME280;10573;50.936;6.978;2023-07-08T01:07:21;101208.00;;;23.15;42.40
20825;BME280;10573;50.936;6.978;2023-07-08T01:09:50;101201.13;;;23.24;42.25
20825;BME280;10573;50.936;6.978;2023-07-08T01:12:19;101205.84;;;23.23;42.28
20825;BME280;10573;50.936;6.978;2023-07-08T01:14:47;101194.91;;;23.22;42.03
20825;BME280;10573;50.936;6.978;2023-07-08T01:17:13;101199.63;;;23.28;41.94
20825;BME280;10573;50.936;6.978;2023-07-08T01:19:43;101192.56;;;23.25;41.94
20825;BME280;10573;50.936;6.978;2023-07-08T01:22:09;101189.38;;;23.15;41.89
20825;BME280;10573;50.936;6.978;2023-07-08T01:24:38;101191.53;;;23.20;42.33
20825;BME280;10573;50.936;6.978;2023-07-08T01:27:07;101188.06;;;23.11;42.54
20825;BME280;10573;50.936;6.978;2023-07-08T01:29:33;101184.69;;;23.02;42.30
20825;BME280;10573;50.936;6.978;2023-07-08T01:31:59;101184.25;;;23.05;42.70
20825;BME280;10573;50.936;6.978;2023-07-08T01:34:34;101182.75;;;23.16;42.71
20825;BME280;10573;50.936;6.978;2023-07-08T01:37:04;101184.91;;;23.14;43.01
20825;BME280;10573;50.936;6.978;2023-07-08T01:39:32;101184.69;;;23.02;42.53
20825;BME280;10573;50.936;6.978;2023-07-08T01:41:58;101184.25;;;23.05;42.83
20825;BME280;10573;50.936;6.978;2023-07-08T01:44:27;101189.38;;;23.08;42.36
20825;BME280;10573;50.936;6.978;2023-07-08T01:46:56;101187.25;;;23.04;42.66
20825;BME280;10573;50.936;6.978;2023-07-08T01:49:23;101177.00;;;22.91;42.77
20825;BME280;10573;50.936;6.978;2023-07-08T01:51:49;101178.53;;;22.87;42.82
20825;BME280;10573;50.936;6.978;2023-07-08T01:54:15;101177.91;;;22.78;43.03
20825;BME280;10573;50.936;6.978;2023-07-08T01:56:40;101182.19;;;22.81;43.31
20825;BME280;10573;50.936;6.978;2023-07-08T01:59:05;101175.75;;;22.87;42.66
20825;BME280;10573;50.936;6.978;2023-07-08T02:01:31;101177.44;;;22.88;43.25
20825;BME280;10573;50.936;6.978;2023-07-08T02:03:56;101172.38;;;22.71;43.03
20825;BME280;10573;50.936;6.978;2023-07-08T02:06:22;101171.91;;;22.74;43.44
20825;BME280;10573;50.936;6.978;2023-07-08T02:08:47;101169.16;;;22.74;43.01
20825;BME280;10573;50.936;6.978;2023-07-08T02:11:12;101160.19;;;22.72;43.57
20825;BME280;10573;50.936;6.978;2023-07-08T02:13:38;101165.09;;;22.70;43.64
20825;BME280;10573;50.936;6.978;2023-07-08T02:16:06;101157.59;;;22.64;43.40
20825;BME280;10573;50.936;6.978;2023-07-08T02:18:31;101160.00;;;22.60;43.50
20825;BME280;10573;50.936;6.978;2023-07-08T02:20:58;101163.84;;;22.53;43.71
20825;BME280;10573;50.936;6.978;2023-07-08T02:23:25;101158.72;;;22.56;44.12
20825;BME280;10573;50.936;6.978;2023-07-08T02:25:51;101149.72;;;22.48;44.10
20825;BME280;10573;50.936;6.978;2023-07-08T02:28:17;101145.91;;;22.35;44.21
20825;BME280;10573;50.936;6.978;2023-07-08T02:30:42;101142.47;;;22.46;43.90
20825;BME280;10573;50.936;6.978;2023-07-08T02:33:07;101154.41;;;22.34;43.89
20825;BME280;10573;50.936;6.978;2023-07-08T02:35:35;101146.94;;;22.34;44.27
20825;BME280;10573;50.936;6.978;2023-07-08T02:38:00;101152.06;;;22.24;44.26
20825;BME280;10573;50.936;6.978;2023-07-08T02:40:26;101147.38;;;22.18;44.70
20825;BME280;10573;50.936;6.978;2023-07-08T02:42:51;101146.72;;;22.16;44.83
20825;BME280;10573;50.936;6.978;2023-07-08T02:45:17;101145.03;;;22.15;45.02
20825;BME280;10573;50.936;6.978;2023-07-08T02:47:43;101141.38;;;22.01;45.20
20825;BME280;10573;50.936;6.978;2023-07-08T02:50:09;101146.06;;;22.00;45.64
20825;BME280;10573;50.936;6.978;2023-07-08T02:52:35;101148.84;;;22.00;45.67
20825;BME280;10573;50.936;6.978;2023-07-08T02:55:01;101145.03;;;22.08;45.10
20825;BME280;10573;50.936;6.978;2023-07-08T02:57:27;101139.88;;;21.98;45.33
20825;BME280;10573;50.936;6.978;2023-07-08T02:59:52;101145.41;;;21.98;45.34
20825;BME280;10573;50.936;6.978;2023-07-08T03:02:18;101140.31;;;21.95;45.50
20825;BME280;10573;50.936;6.978;2023-07-08T03:04:43;101139.22;;;21.89;45.36
20825;BME280;10573;50.936;6.978;2023-07-08T03:07:09;101143.03;;;21.68;45.74
20825;BME280;10573;50.936;6.978;2023-07-08T03:09:37;101142.44;;;21.86;45.84
20825;BME280;10573;50.936;6.978;2023-07-08T03:12:08;101146.91;;;22.01;45.97
20825;BME280;10573;50.936;6.978;2023-07-08T03:14:34;101146.69;;;21.95;45.67
20825;BME280;10573;50.936;6.978;2023-07-08T03:16:59;101151.19;;;21.96;45.93
20825;BME280;10573;50.936;6.978;2023-07-08T03:19:25;101156.94;;;21.95;46.11
20825;BME280;10573;50.936;6.978;2023-07-08T03:21:51;101161.00;;;21.92;45.60
20825;BME280;10573;50.936;6.978;2023-07-08T03:24:16;101157.38;;;21.92;45.74
20825;BME280;10573;50.936;6.978;2023-07-08T03:26:44;101165.72;;;22.05;45.45
20825;BME280;10573;50.936;6.978;2023-07-08T03:29:14;101162.50;;;22.08;44.85
20825;BME280;10573;50.936;6.978;2023-07-08T03:31:40;101175.31;;;22.03;45.78
20825;BME280;10573;50.936;6.978;2023-07-08T03:34:08;101171.91;;;22.07;45.42
20825;BME280;10573;50.936;6.978;2023-07-08T03:36:42;101181.72;;;22.03;46.06
20825;BME280;10573;50.936;6.978;2023-07-08T03:39:17;101176.34;;;21.82;46.25
20825;BME280;10573;50.936;6.978;2023-07-08T03:41:43;101181.25;;;21.79;46.66
20825;BME280;10573;50.936;6.978;2023-07-08T03:44:09;101174.41;;;21.89;46.31
20825;BME280;10573;50.936;6.978;2023-07-08T03:46:34;101175.72;;;21.86;46.43
20825;BME280;10573;50.936;6.978;2023-07-08T03:49:00;101174.38;;;21.75;46.72
20825;BME280;10573;50.936;6.978;2023-07-08T03:51:36;101174.81;;;21.72;46.66
20825;BME280;10573;50.936;6.978;2023-07-08T03:54:04;101181.88;;;21.82;46.73
20825;BME280;10573;50.936;6.978;2023-07-08T03:56:30;101181.66;;;21.76;45.99
20825;BME280;10573;50.936;6.978;2023-07-08T03:58:55;101173.59;;;21.95;45.34
20825;BME280;10573;50.936;6.978;2023-07-08T04:01:23;101172.75;;;21.94;45.49
20825;BME280;10573;50.936;6.978;2023-07-08T04:03:53;101179.09;;;21.82;45.54
20825;BME280;10573;50.936;6.978;2023-07-08T04:06:19;101186.16;;;21.91;46.21
20825;BME280;10573;50.936;6.978;2023-07-08T04:08:46;101182.97;;;21.94;45.62
20825;BME280;10573;50.936;6.978;2023-07-08T04:11:16;101184.69;;;21.95;45.36
20825;BME280;10573;50.936;6.978;2023-07-08T04:13:42;101176.78;;;21.85;45.75
20825;BME280;10573;50.936;6.978;2023-07-08T04:16:16;101174.44;;;21.95;45.61
20825;BME280;10573;50.936;6.978;2023-07-08T04:18:42;101180.63;;;21.98;45.57
20825;BME280;10573;50.936;6.978;2023-07-08T04:21:07;101177.41;;;21.94;45.53
20825;BME280;10573;50.936;6.978;2023-07-08T04:23:33;101180.84;;;21.96;45.61
20825;BME280;10573;50.936;6.978;2023-07-08T04:25:59;101186.63;;;22.01;45.66
20825;BME280;10573;50.936;6.978;2023-07-08T04:28:25;101172.97;;;21.93;45.53
20825;BME280;10573;50.936;6.978;2023-07-08T04:30:50;101180.63;;;21.98;45.82
20825;BME280;10573;50.936;6.978;2023-07-08T04:33:16;101183.41;;;21.98;45.45
20825;BME280;10573;50.936;6.978;2023-07-08T04:35:43;101175.75;;;21.93;45.44
20825;BME280;10573;50.936;6.978;2023-07-08T04:38:22;101186.16;;;21.91;45.40
20825;BME280;10573;50.936;6.978;2023-07-08T04:40:48;101179.78;;;21.90;45.74
20825;BME280;10573;50.936;6.978;2023-07-08T04:43:14;101182.75;;;22.02;45.09
20825;BME280;10573;50.936;6.978;2023-07-08T04:45:42;101188.75;;;21.99;45.17
20825;BME280;10573;50.936;6.978;2023-07-08T04:48:12;101184.06;;;22.00;45.42
20825;BME280;10573;50.936;6.978;2023-07-08T04:50:42;101177.03;;;22.04;45.08
20825;BME280;10573;50.936;6.978;2023-07-08T04:53:09;101185.53;;;22.02;45.18
20825;BME280;10573;50.936;6.978;2023-07-08T04:55:36;101189.81;;;21.98;45.63
20825;BME280;10573;50.936;6.978;2023-07-08T04:58:03;101178.53;;;22.06;45.38
20825;BME280;10573;50.936;6.978;2023-07-08T05:00:28;101183.44;;;22.11;45.01
20825;BME280;10573;50.936;6.978;2023-07-08T05:02:54;101186.44;;;22.09;44.84
20825;BME280;10573;50.936;6.978;2023-07-08T05:05:20;101197.06;;;21.99;45.48
20825;BME280;10573;50.936;6.978;2023-07-08T05:07:46;101195.38;;;22.18;44.71
20825;BME280;10573;50.936;6.978;2023-07-08T05:10:11;101192.22;;;22.21;44.99
20825;BME280;10573;50.936;6.978;2023-07-08T05:12:36;101187.75;;;22.40;44.91
20825;BME280;10573;50.936;6.978;2023-07-08T05:15:03;101191.38;;;22.41;44.78
20825;BME280;10573;50.936;6.978;2023-07-08T05:17:29;101194.59;;;22.58;44.73
20825;BME280;10573;50.936;6.978;2023-07-08T05:19:55;101189.25;;;22.63;44.80
20825;BME280;10573;50.936;6.978;2023-07-08T05:22:23;101185.19;;;22.72;44.35
20825;BME280;10573;50.936;6.978;2023-07-08T05:24:51;101195.41;;;22.78;44.09
20825;BME280;10573;50.936;6.978;2023-07-08T05:27:18;101191.13;;;22.96;43.62
20825;BME280;10573;50.936;6.978;2023-07-08T05:29:45;101178.50;;;23.00;43.52
20825;BME280;10573;50.936;6.978;2023-07-08T05:32:10;101180.22;;;22.94;43.48
20825;BME280;10573;50.936;6.978;2023-07-08T05:34:36;101173.59;;;23.02;42.91
20825;BME280;10573;50.936;6.978;2023-07-08T05:37:01;101186.41;;;23.03;43.11
20825;BME280;10573;50.936;6.978;2023-07-08T05:39:27;101177.84;;;23.05;42.52
20825;BME280;10573;50.936;6.978;2023-07-08T05:41:52;101184.47;;;23.10;42.49
20825;BME280;10573;50.936;6.978;2023-07-08T05:44:17;101181.69;;;23.17;42.06
20825;BME280;10573;50.936;6.978;2023-07-08T05:46:43;101191.53;;;23.20;41.82
20825;BME280;10573;50.936;6.978;2023-07-08T05:49:08;101193.38;;;23.39;42.02
20825;BME280;10573;50.936;6.978;2023-07-08T05:51:34;101190.63;;;23.33;41.06
20825;BME280;10573;50.936;6.978;2023-07-08T05:54:00;101181.13;;;23.47;41.35
20825;BME280;10573;50.936;6.978;2023-07-08T05:56:25;101187.75;;;23.53;40.92
20825;BME280;10573;50.936;6.978;2023-07-08T05:58:50;101188.38;;;23.55;41.01
20825;BME280;10573;50.936;6.978;2023-07-08T06:01:16;101190.72;;;23.58;40.85
20825;BME280;10573;50.936;6.978;2023-07-08T06:03:41;101186.69;;;23.47;40.55
20825;BME280;10573;50.936;6.978;2023-07-08T06:06:07;101179.22;;;23.48;40.99
20825;BME280;10573;50.936;6.978;2023-07-08T06:08:32;101180.22;;;23.60;40.48
20825;BME280;10573;50.936;6.978;2023-07-08T06:10:57;101182.09;;;23.66;40.70
20825;BME280;10573;50.936;6.978;2023-07-08T06:13:23;101181.47;;;23.71;40.44
20825;BME280;10573;50.936;6.978;2023-07-08T06:15:48;101182.34;;;23.65;40.79
20825;BME280;10573;50.936;6.978;2023-07-08T06:18:13;101181.50;;;23.64;40.49
20825;BME280;10573;50.936;6.978;2023-07-08T06:20:39;101186.00;;;23.65;40.86
20825;BME280;10573;50.936;6.978;2023-07-08T06:23:04;101187.41;;;23.81;40.14
20825;BME280;10573;50.936;6.978;2023-07-08T06:25:31;101190.75;;;23.96;40.02
20825;BME280;10573;50.936;6.978;2023-07-08T06:27:57;101187.97;;;23.96;39.76
20825;BME280;10573;50.936;6.978;2023-07-08T06:30:22;101193.72;;;24.02;40.33
20825;BME280;10573;50.936;6.978;2023-07-08T06:32:48;101190.16;;;24.20;39.74
20825;BME280;10573;50.936;6.978;2023-07-08T06:35:13;101182.63;;;24.27;40.12
20825;BME280;10573;50.936;6.978;2023-07-08T06:37:39;101184.56;;;24.52;39.38
20825;BME280;10573;50.936;6.978;2023-07-08T06:40:05;101190.22;;;24.70;39.18
20825;BME280;10573;50.936;6.978;2023-07-08T06:42:31;101185.81;;;24.81;39.16
20825;BME280;10573;50.936;6.978;2023-07-08T06:44:56;101177.53;;;24.74;39.00
20825;BME280;10573;50.936;6.978;2023-07-08T06:47:22;101184.97;;;24.81;39.82
20825;BME280;10573;50.936;6.978;2023-07-08T06:49:48;101184.53;;;25.02;39.11
20825;BME280;10573;50.936;6.978;2023-07-08T06:52:14;101188.16;;;25.03;39.28
20825;BME280;10573;50.936;6.978;2023-07-08T06:54:40;101186.09;;;25.35;38.68
20825;BME280;10573;50.936;6.978;2023-07-08T06:57:05;101186.00;;;25.42;38.42
20825;BME280;10573;50.936;6.978;2023-07-08T06:59:31;101187.34;;;25.39;37.13
20825;BME280;10573;50.936;6.978;2023-07-08T07:01:56;101192.38;;;25.49;38.31
20825;BME280;10573;50.936;6.978;2023-07-08T07:04:22;101198.63;;;25.63;37.87
20825;BME280;10573;50.936;6.978;2023-07-08T07:06:47;101193.78;;;25.70;36.75
20825;BME280;10573;50.936;6.978;2023-07-08T07:09:13;101184.34;;;25.71;37.06
20825;BME280;10573;50.936;6.978;2023-07-08T07:11:38;101179.94;;;25.94;35.97
20825;BME280;10573;50.936;6.978;2023-07-08T07:14:03;101184.34;;;26.02;35.46
20825;BME280;10573;50.936;6.978;2023-07-08T07:16:29;101184.69;;;26.36;35.80
20825;BME280;10573;50.936;6.978;2023-07-08T07:18:54;101179.72;;;26.38;34.91
20825;BME280;10573;50.936;6.978;2023-07-08T07:21:20;101176.69;;;26.39;34.47
20825;BME280;10573;50.936;6.978;2023-07-08T07:23:46;101180.22;;;26.46;34.75
20825;BME280;10573;50.936;6.978;2023-07-08T07:26:11;101182.88;;;26.53;35.03
20825;BME280;10573;50.936;6.978;2023-07-08T07:28:37;101167.09;;;26.59;34.69
20825;BME280;10573;50.936;6.978;2023-07-08T07:31:02;101179.41;;;26.70;34.85
20825;BME280;10573;50.936;6.978;2023-07-08T07:33:30;101176.22;;;26.90;34.06
20825;BME280;10573;50.936;6.978;2023-07-08T07:35:56;101177.69;;;26.92;34.48
20825;BME280;10573;50.936;6.978;2023-07-08T07:38:21;101192.03;;;26.96;34.60
20825;BME280;10573;50.936;6.978;2023-07-08T07:40:46;101187.06;;;26.98;34.22
20825;BME280;10573;50.936;6.978;2023-07-08T07:43:12;101197.25;;;26.69;34.80
20825;BME280;10573;50.936;6.978;2023-07-08T07:45:37;101198.31;;;26.56;35.45
20825;BME280;10573;50.936;6.978;2023-07-08T07:48:03;101205.63;;;26.69;35.03
20825;BME280;10573;50.936;6.978;2023-07-08T07:50:30;101203.47;;;26.83;34.04
20825;BME280;10573;50.936;6.978;2023-07-08T07:52:55;101196.53;;;26.97;34.71
20825;BME280;10573;50.936;6.978;2023-07-08T07:55:21;101197.13;;;27.23;33.98
20825;BME280;10573;50.936;6.978;2023-07-08T07:57:46;101199.53;;;27.43;33.98
20825;BME280;10573;50.936;6.978;2023-07-08T08:00:12;101199.63;;;27.60;33.49
20825;BME280;10573;50.936;6.978;2023-07-08T08:02:40;101201.47;;;27.83;33.80
20825;BME280;10573;50.936;6.978;2023-07-08T08:05:06;101195.97;;;27.88;33.11
20825;BME280;10573;50.936;6.978;2023-07-08T08:07:31;101189.50;;;27.88;33.53
20825;BME280;10573;50.936;6.978;2023-07-08T08:09:56;101191.13;;;28.12;34.02
20825;BME280;10573;50.936;6.978;2023-07-08T08:12:22;101186.19;;;28.20;33.00
20825;BME280;10573;50.936;6.978;2023-07-08T08:14:50;101177.56;;;28.38;32.41
20825;BME280;10573;50.936;6.978;2023-07-08T08:17:16;101175.09;;;28.42;32.09
20825;BME280;10573;50.936;6.978;2023-07-08T08:19:41;101181.47;;;28.54;32.16
20825;BME280;10573;50.936;6.978;2023-07-08T08:22:07;101185.19;;;28.60;32.36
20825;BME280;10573;50.936;6.978;2023-07-08T08:24:33;101176.72;;;28.72;31.57
20825;BME280;10573;50.936;6.978;2023-07-08T08:26:59;101177.56;;;28.72;31.90
20825;BME280;10573;50.936;6.978;2023-07-08T08:29:24;101180.44;;;28.94;32.01
20825;BME280;10573;50.936;6.978;2023-07-08T08:31:50;101190.28;;;28.97;31.87
20825;BME280;10573;50.936;6.978;2023-07-08T08:34:15;101176.38;;;29.07;31.11
20825;BME280;10573;50.936;6.978;2023-07-08T08:36:41;101181.72;;;29.26;31.20
20825;BME280;10573;50.936;6.978;2023-07-08T08:39:08;101183.50;;;29.32;30.50
20825;BME280;10573;50.936;6.978;2023-07-08T08:41:35;101181.00;;;29.58;31.04
20825;BME280;10573;50.936;6.978;2023-07-08T08:44:03;101175.31;;;29.75;30.50
20825;BME280;10573;50.936;6.978;2023-07-08T08:46:44;101178.47;;;30.06;30.07
20825;BME280;10573;50.936;6.978;2023-07-08T08:51:48;101172.88;;;30.43;29.54
20825;BME280;10573;50.936;6.978;2023-07-08T08:54:14;101168.94;;;30.77;28.90
20825;BME280;10573;50.936;6.978;2023-07-08T08:59:43;101173.41;;;31.84;27.78
20825;BME280;10573;50.936;6.978;2023-07-08T09:05:03;101188.97;;;32.59;26.71
20825;BME280;10573;50.936;6.978;2023-07-08T09:07:36;101179.06;;;32.87;26.87
20825;BME280;10573;50.936;6.978;2023-07-08T09:10:04;101174.19;;;33.19;26.12
20825;BME280;10573;50.936;6.978;2023-07-08T09:12:34;101170.00;;;33.76;25.65
20825;BME280;10573;50.936;6.978;2023-07-08T09:15:14;101163.47;;;34.26;24.32
20825;BME280;10573;50.936;6.978;2023-07-08T09:17:40;101176.69;;;34.65;23.91
20825;BME280;10573;50.936;6.978;2023-07-08T09:23:01;101161.81;;;35.32;22.85
20825;BME280;10573;50.936;6.978;2023-07-08T09:28:00;101160.19;;;35.69;22.89
20825;BME280;10573;50.936;6.978;2023-07-08T09:30:26;101159.88;;;36.28;22.28
20825;BME280;10573;50.936;6.978;2023-07-08T09:32:54;101165.41;;;36.38;21.99
20825;BME280;10573;50.936;6.978;2023-07-08T09:35:25;101166.47;;;37.03;21.30
20825;BME280;10573;50.936;6.978;2023-07-08T09:37:52;101159.84;;;36.94;21.49
20825;BME280;10573;50.936;6.978;2023-07-08T09:40:30;101156.22;;;36.74;22.00
20825;BME280;10573;50.936;6.978;2023-07-08T09:45:29;101169.31;;;37.03;21.71
20825;BME280;10573;50.936;6.978;2023-07-08T09:48:21;101162.25;;;36.87;21.63
20825;BME280;10573;50.936;6.978;2023-07-08T09:50:48;101155.84;;;37.23;21.42
20825;BME280;10573;50.936;6.978;2023-07-08T09:53:14;101160.94;;;36.65;22.28
20825;BME280;10573;50.936;6.978;2023-07-08T09:55:40;101170.06;;;36.81;21.90
20825;BME280;10573;50.936;6.978;2023-07-08T09:58:11;101150.91;;;37.28;21.64
20825;BME280;10573;50.936;6.978;2023-07-08T10:00:41;101150.78;;;37.48;21.83
20825;BME280;10573;50.936;6.978;2023-07-08T10:03:20;101146.75;;;38.22;20.69
20825;BME280;10573;50.936;6.978;2023-07-08T10:05:48;101141.84;;;38.14;20.87
20825;BME280;10573;50.936;6.978;2023-07-08T10:08:17;101139.66;;;37.88;20.73
20825;BME280;10573;50.936;6.978;2023-07-08T10:10:45;101130.88;;;37.98;20.49
20825;BME280;10573;50.936;6.978;2023-07-08T10:13:57;101140.31;;;38.07;20.78
20825;BME280;10573;50.936;6.978;2023-07-08T10:16:23;101141.66;;;37.87;20.68
20825;BME280;10573;50.936;6.978;2023-07-08T10:18:50;101133.94;;;39.36;19.30
20825;BME280;10573;50.936;6.978;2023-07-08T10:24:42;101130.63;;;38.94;19.53
20825;BME280;10573;50.936;6.978;2023-07-08T10:27:22;101140.66;;;38.91;19.71
20825;BME280;10573;50.936;6.978;2023-07-08T10:30:30;101125.56;;;39.40;19.05
20825;BME280;10573;50.936;6.978;2023-07-08T10:35:27;101124.75;;;39.39;18.87
20825;BME280;10573;50.936;6.978;2023-07-08T10:40:50;101129.50;;;39.70;18.67
20825;BME280;10573;50.936;6.978;2023-07-08T10:43:38;101118.91;;;40.06;17.86
20825;BME280;10573;50.936;6.978;2023-07-08T10:46:24;101123.19;;;40.47;17.72
20825;BME280;10573;50.936;6.978;2023-07-08T10:51:40;101116.66;;;40.55;17.10
20825;BME280;10573;50.936;6.978;2023-07-08T10:56:49;101124.75;;;39.57;18.70
20825;BME280;10573;50.936;6.978;2023-07-08T11:02:19;101126.28;;;41.19;16.84
20825;BME280;10573;50.936;6.978;2023-07-08T11:07:49;101122.06;;;40.87;17.06
20825;BME280;10573;50.936;6.978;2023-07-08T11:10:28;101125.41;;;40.89;17.03
20825;BME280;10573;50.936;6.978;2023-07-08T11:13:01;101120.53;;;40.51;17.91
20825;BME280;10573;50.936;6.978;2023-07-08T11:15:32;101133.25;;;40.71;17.51
20825;BME280;10573;50.936;6.978;2023-07-08T11:21:19;101118.16;;;41.00;17.40
20825;BME280;10573;50.936;6.978;2023-07-08T11:23:51;101120.69;;;40.93;16.80
20825;BME280;10573;50.936;6.978;2023-07-08T11:26:50;101128.72;;;41.08;17.60
20825;BME280;10573;50.936;6.978;2023-07-08T11:29:23;101115.41;;;41.42;16.66
20825;BME280;10573;50.936;6.978;2023-07-08T11:31:50;101118.94;;;41.09;16.57
20825;BME280;10573;50.936;6.978;2023-07-08T11:34:17;101116.97;;;41.01;16.96
20825;BME280;10573;50.936;6.978;2023-07-08T11:36:43;101103.66;;;41.35;17.28
20825;BME280;10573;50.936;6.978;2023-07-08T11:39:32;101110.34;;;42.24;17.08
20825;BME280;10573;50.936;6.978;2023-07-08T11:44:42;101107.06;;;42.47;16.44
20825;BME280;10573;50.936;6.978;2023-07-08T11:47:15;101103.88;;;41.72;17.16
20825;BME280;10573;50.936;6.978;2023-07-08T11:49:41;101105.53;;;41.01;17.93
20825;BME280;10573;50.936;6.978;2023-07-08T11:52:08;101114.63;;;41.75;16.65
20825;BME280;10573;50.936;6.978;2023-07-08T11:54:45;101097.03;;;41.86;16.89
20825;BME280;10573;50.936;6.978;2023-07-08T11:57:19;101097.94;;;41.99;17.13
20825;BME280;10573;50.936;6.978;2023-07-08T11:59:56;101116.41;;;41.89;16.75
20825;BME280;10573;50.936;6.978;2023-07-08T12:02:47;101109.88;;;41.37;16.84
20825;BME280;10573;50.936;6.978;2023-07-08T12:05:13;101104.31;;;41.32;17.03
20825;BME280;10573;50.936;6.978;2023-07-08T12:07:46;101103.28;;;41.88;17.05
20825;BME280;10573;50.936;6.978;2023-07-08T12:10:19;101106.94;;;42.43;17.08
20825;BME280;10573;50.936;6.978;2023-07-08T12:12:47;101111.56;;;42.35;16.88
20825;BME280;10573;50.936;6.978;2023-07-08T12:17:55;101095.88;;;43.16;16.14
20825;BME280;10573;50.936;6.978;2023-07-08T12:20:22;101089.25;;;43.52;16.48
20825;BME280;10573;50.936;6.978;2023-07-08T12:22:48;101090.13;;;44.10;15.74
20825;BME280;10573;50.936;6.978;2023-07-08T12:25:14;101096.69;;;43.82;15.54
20825;BME280;10573;50.936;6.978;2023-07-08T12:27:41;101098.81;;;43.44;15.55
20825;BME280;10573;50.936;6.978;2023-07-08T12:30:07;101092.06;;;43.77;14.62
20825;BME280;10573;50.936;6.978;2023-07-08T12:32:33;101093.31;;;43.51;15.75
20825;BME280;10573;50.936;6.978;2023-07-08T12:34:59;101090.81;;;44.67;14.64
20825;BME280;10573;50.936;6.978;2023-07-08T12:37:24;101085.44;;;44.97;14.62
20825;BME280;10573;50.936;6.978;2023-07-08T12:39:56;101092.22;;;43.97;14.97
20825;BME280;10573;50.936;6.978;2023-07-08T12:42:25;101084.00;;;44.11;15.04
20825;BME280;10573;50.936;6.978;2023-07-08T12:44:50;101075.38;;;44.71;14.85
20825;BME280;10573;50.936;6.978;2023-07-08T12:47:19;101091.84;;;45.06;14.58
20825;BME280;10573;50.936;6.978;2023-07-08T12:49:45;101083.53;;;44.37;14.83
20825;BME280;10573;50.936;6.978;2023-07-08T12:52:23;101084.84;;;43.42;15.75
20825;BME280;10573;50.936;6.978;2023-07-08T12:54:49;101094.59;;;43.66;15.56
20825;BME280;10573;50.936;6.978;2023-07-08T12:57:17;101085.66;;;43.96;15.49
20825;BME280;10573;50.936;6.978;2023-07-08T12:59:43;101085.56;;;44.85;15.13
20825;BME280;10573;50.936;6.978;2023-07-08T13:02:16;101080.66;;;43.81;15.53
20825;BME280;10573;50.936;6.978;2023-07-08T13:04:43;101081.28;;;44.02;15.83
20825;BME280;10573;50.936;6.978;2023-07-08T13:07:12;101074.75;;;44.18;15.86
20825;BME280;10573;50.936;6.978;2023-07-08T13:09:45;101083.78;;;44.64;15.37
20825;BME280;10573;50.936;6.978;2023-07-08T13:12:16;101079.56;;;44.14;14.83
20825;BME280;10573;50.936;6.978;2023-07-08T13:14:43;101077.78;;;43.52;15.14
20825;BME280;10573;50.936;6.978;2023-07-08T13:17:15;101085.56;;;43.39;15.45
20825;BME280;10573;50.936;6.978;2023-07-08T13:19:42;101082.00;;;43.05;16.28
20825;BME280;10573;50.936;6.978;2023-07-08T13:22:14;101069.16;;;44.37;14.38
20825;BME280;10573;50.936;6.978;2023-07-08T13:24:41;101077.28;;;43.91;14.89
20825;BME280;10573;50.936;6.978;2023-07-08T13:27:08;101081.53;;;44.25;14.29
20825;BME280;10573;50.936;6.978;2023-07-08T13:29:35;101075.16;;;43.60;15.38
20825;BME280;10573;50.936;6.978;2023-07-08T13:32:05;101069.16;;;44.37;14.77
20825;BME280;10573;50.936;6.978;2023-07-08T13:34:32;101062.72;;;44.60;14.50
20825;BME280;10573;50.936;6.978;2023-07-08T13:36:57;101063.81;;;43.38;15.22
20825;BME280;10573;50.936;6.978;2023-07-08T13:39:33;101064.53;;;44.04;14.35
20825;BME280;10573;50.936;6.978;2023-07-08T13:42:00;101061.88;;;43.83;14.54
20825;BME280;10573;50.936;6.978;2023-07-08T13:44:27;101062.59;;;43.80;14.65